createdAt,value
2018-07-03T00:01:09.991Z,0.60
2018-07-03T00:03:44.991Z,0.60
2018-07-03T00:06:20.200Z,0.50
2018-07-03T00:08:55.196Z,0.70
2018-07-03T00:11:30.279Z,0.50
2018-07-03T00:14:05.560Z,0.77
2018-07-03T00:16:45.952Z,0.67
2018-07-03T00:19:21.031Z,0.53
2018-07-03T00:21:55.965Z,0.60
2018-07-03T00:24:30.987Z,0.60
2018-07-03T00:27:06.428Z,0.60
2018-07-03T00:29:41.551Z,0.50
2018-07-03T00:32:16.604Z,0.50
2018-07-03T00:34:51.784Z,0.63
2018-07-03T00:37:26.728Z,0.50
2018-07-03T00:40:01.775Z,0.67
2018-07-03T00:42:36.888Z,0.60
2018-07-03T00:45:11.798Z,0.60
2018-07-03T00:47:46.722Z,0.63
2018-07-03T00:50:21.927Z,0.40
2018-07-03T00:52:57.132Z,0.50
2018-07-03T00:55:32.214Z,0.57
2018-07-03T00:58:07.371Z,0.60
2018-07-03T01:00:42.435Z,0.70
2018-07-03T01:03:17.563Z,0.57
2018-07-03T01:05:52.846Z,0.50
2018-07-03T01:08:27.837Z,0.50
2018-07-03T01:11:02.835Z,0.50
2018-07-03T01:13:38.548Z,0.70
2018-07-03T01:16:13.701Z,0.50
2018-07-03T01:18:48.744Z,0.60
2018-07-03T01:21:23.826Z,0.80
2018-07-03T01:23:58.905Z,0.50
2018-07-03T01:26:33.861Z,0.60
2018-07-03T01:29:08.812Z,0.60
2018-07-03T01:31:43.872Z,0.50
2018-07-03T01:34:18.926Z,0.40
2018-07-03T01:36:54.072Z,0.43
2018-07-03T01:39:29.683Z,0.60
2018-07-03T01:42:04.712Z,0.67
2018-07-03T01:44:39.707Z,0.60
2018-07-03T01:47:14.824Z,0.57
2018-07-03T01:49:49.902Z,0.60
2018-07-03T01:52:24.928Z,0.57
2018-07-03T01:54:59.971Z,0.90
2018-07-03T01:57:34.900Z,0.40
2018-07-03T02:00:10.015Z,0.50
2018-07-03T02:02:45.117Z,0.50
2018-07-03T02:05:20.203Z,0.50
2018-07-03T02:07:56.062Z,0.50
2018-07-03T02:10:30.991Z,0.70
2018-07-03T02:13:06.244Z,0.40
2018-07-03T02:15:41.195Z,0.50
2018-07-03T02:18:16.268Z,0.47
2018-07-03T02:20:51.268Z,0.30
2018-07-03T02:23:26.211Z,0.47
2018-07-03T02:26:01.399Z,0.50
2018-07-03T02:28:36.531Z,0.70
2018-07-03T02:31:11.579Z,0.57
2018-07-03T02:33:46.644Z,0.50
2018-07-03T02:36:21.795Z,0.60
2018-07-03T02:38:56.780Z,0.50
2018-07-03T02:41:31.805Z,0.50
2018-07-03T02:44:06.784Z,0.43
2018-07-03T02:46:41.842Z,0.30
2018-07-03T02:49:16.831Z,0.47
2018-07-03T02:51:51.988Z,0.43
2018-07-03T02:54:27.068Z,0.70
2018-07-03T02:57:02.633Z,0.40
2018-07-03T02:59:37.804Z,0.60
2018-07-03T03:02:12.743Z,0.43
2018-07-03T03:04:47.860Z,0.50
2018-07-03T03:07:22.893Z,0.60
2018-07-03T03:09:58.164Z,0.50
2018-07-03T03:12:33.316Z,0.57
2018-07-03T03:15:08.360Z,1.50
2018-07-03T03:17:43.304Z,1.70
2018-07-03T03:20:18.427Z,1.97
2018-07-03T03:22:53.608Z,1.80
2018-07-03T03:25:28.643Z,1.73
2018-07-03T03:28:03.596Z,1.50
2018-07-03T03:30:38.788Z,1.47
2018-07-03T03:33:13.920Z,1.67
2018-07-03T03:35:49.119Z,1.50
2018-07-03T03:38:24.176Z,2.03
2018-07-03T03:40:59.157Z,1.73
2018-07-03T03:43:34.150Z,2.10
2018-07-03T03:46:09.096Z,2.10
2018-07-03T03:48:44.151Z,1.70
2018-07-03T03:51:19.331Z,2.00
2018-07-03T03:53:54.383Z,2.10
2018-07-03T03:56:29.308Z,2.00
2018-07-03T03:59:04.343Z,1.93
2018-07-03T04:01:39.427Z,1.80
2018-07-03T04:04:14.546Z,1.80
2018-07-03T04:06:49.672Z,2.03
2018-07-03T04:09:24.784Z,2.10
2018-07-03T04:11:59.924Z,2.10
2018-07-03T04:14:35.053Z,2.20
2018-07-03T04:17:09.963Z,2.37
2018-07-03T04:19:44.936Z,2.03
2018-07-03T04:22:20.140Z,2.50
2018-07-03T04:24:55.241Z,2.20
2018-07-03T04:27:30.059Z,2.10
2018-07-03T04:30:05.460Z,2.00
2018-07-03T04:32:40.483Z,2.10
2018-07-03T04:35:15.596Z,2.20
2018-07-03T04:37:50.622Z,2.03
2018-07-03T04:40:25.539Z,2.00
2018-07-03T04:43:00.467Z,2.30
2018-07-03T04:45:35.592Z,2.10
2018-07-03T04:48:10.577Z,2.20
2018-07-03T04:50:45.572Z,2.10
2018-07-03T04:53:20.733Z,2.33
2018-07-03T04:55:55.904Z,2.40
2018-07-03T04:58:30.687Z,2.00
2018-07-03T05:01:05.559Z,2.27
2018-07-03T05:03:40.976Z,2.37
2018-07-03T05:06:16.025Z,2.10
2018-07-03T05:08:51.075Z,2.20
2018-07-03T05:11:26.143Z,1.90
2018-07-03T05:14:01.332Z,2.10
2018-07-03T05:16:36.615Z,2.30
2018-07-03T05:19:11.653Z,1.90
2018-07-03T05:21:46.730Z,1.97
2018-07-03T05:24:21.607Z,2.17
2018-07-03T05:26:56.943Z,2.40
2018-07-03T05:29:31.975Z,2.37
2018-07-03T05:32:06.972Z,1.93
2018-07-03T05:34:41.937Z,2.47
2018-07-03T05:37:17.011Z,1.70
2018-07-03T05:39:51.995Z,2.40
2018-07-03T05:42:27.121Z,2.30
2018-07-03T05:45:02.148Z,2.00
2018-07-03T05:47:37.091Z,2.93
2018-07-03T05:50:12.155Z,3.13
2018-07-03T05:52:47.240Z,2.53
2018-07-03T05:55:22.176Z,2.30
2018-07-03T05:57:57.287Z,1.50
2018-07-03T06:00:32.383Z,2.37
2018-07-03T06:03:07.487Z,2.80
2018-07-03T06:05:42.372Z,2.10
2018-07-03T06:08:17.217Z,2.43
2018-07-03T06:10:52.353Z,1.63
2018-07-03T06:13:27.475Z,2.10
2018-07-03T06:16:02.710Z,1.50
2018-07-03T06:18:37.715Z,2.00
2018-07-03T06:21:12.804Z,1.47
2018-07-03T06:23:47.900Z,2.10
2018-07-03T06:26:23.088Z,1.60
2018-07-03T06:28:58.257Z,1.73
2018-07-03T06:31:33.328Z,1.50
2018-07-03T06:34:08.509Z,1.40
2018-07-03T06:36:43.708Z,1.73
2018-07-03T06:39:18.828Z,1.97
2018-07-03T06:41:54.316Z,2.10
2018-07-03T06:44:29.236Z,1.80
2018-07-03T06:47:04.387Z,1.73
2018-07-03T06:49:39.360Z,2.23
2018-07-03T06:52:14.500Z,1.87
2018-07-03T06:54:49.467Z,2.23
2018-07-03T06:57:24.408Z,1.40
2018-07-03T06:59:59.486Z,1.30
2018-07-03T07:02:34.543Z,1.30
2018-07-03T07:05:09.660Z,1.70
2018-07-03T07:07:44.707Z,1.97
2018-07-03T07:10:19.903Z,1.53
2018-07-03T07:12:54.878Z,1.60
2018-07-03T07:15:29.997Z,1.50
2018-07-03T07:18:05.153Z,1.70
2018-07-03T07:20:40.537Z,1.50
2018-07-03T07:23:15.576Z,1.50
2018-07-03T07:25:50.441Z,1.50
2018-07-03T07:28:25.527Z,1.43
2018-07-03T07:31:00.771Z,1.40
2018-07-03T07:33:35.892Z,1.30
2018-07-03T07:36:10.856Z,1.50
2018-07-03T07:38:45.961Z,0.93
2018-07-03T07:41:20.964Z,1.27
2018-07-03T07:43:56.068Z,1.20
2018-07-03T07:46:31.155Z,0.90
2018-07-03T07:49:06.640Z,1.40
2018-07-03T07:51:41.843Z,1.40
2018-07-03T07:54:16.869Z,0.90
2018-07-03T07:56:52.576Z,1.50
2018-07-03T07:59:27.636Z,1.10
2018-07-03T08:02:02.719Z,1.10
2018-07-03T08:04:37.818Z,1.17
2018-07-03T08:07:12.879Z,1.00
2018-07-03T08:09:48.051Z,1.30
2018-07-03T08:12:23.224Z,1.27
2018-07-03T08:14:58.367Z,1.10
2018-07-03T08:17:33.292Z,0.97
2018-07-03T08:20:08.450Z,1.20
2018-07-03T08:22:43.611Z,1.00
2018-07-03T08:25:18.644Z,0.90
2018-07-03T08:27:53.547Z,1.00
2018-07-03T08:30:28.640Z,1.10
2018-07-03T08:33:03.751Z,0.90
2018-07-03T08:35:38.872Z,0.90
2018-07-03T08:38:13.912Z,1.00
2018-07-03T08:40:48.870Z,0.90
2018-07-03T08:43:24.052Z,0.90
2018-07-03T08:45:59.104Z,0.80
2018-07-03T08:48:34.173Z,0.90
2018-07-03T08:51:09.169Z,1.30
2018-07-03T08:53:44.173Z,1.00
2018-07-03T08:56:19.120Z,1.00
2018-07-03T08:58:54.781Z,1.20
2018-07-03T09:01:29.848Z,0.83
2018-07-03T09:04:05.168Z,1.27
2018-07-03T09:06:40.301Z,1.00
2018-07-03T09:09:15.384Z,0.90
2018-07-03T09:11:50.348Z,1.10
2018-07-03T09:14:26.359Z,0.90
2018-07-03T09:17:05.688Z,1.00
2018-07-03T09:19:40.659Z,0.80
2018-07-03T09:22:15.792Z,1.23
2018-07-03T09:24:50.867Z,0.90
2018-07-03T09:27:26.021Z,0.80
2018-07-03T09:30:01.105Z,0.80
2018-07-03T09:32:36.327Z,0.80
2018-07-03T09:35:11.430Z,1.00
2018-07-03T09:37:46.505Z,1.10
2018-07-03T09:40:21.605Z,0.93
2018-07-03T09:42:56.537Z,0.80
2018-07-03T09:45:31.595Z,0.90
2018-07-03T09:48:06.725Z,1.10
2018-07-03T09:50:41.696Z,0.90
2018-07-03T09:53:16.691Z,0.80
2018-07-03T09:55:51.776Z,0.93
2018-07-03T09:58:26.945Z,1.13
2018-07-03T10:01:06.432Z,0.80
2018-07-03T10:03:41.519Z,0.70
2018-07-03T10:06:16.642Z,0.80
2018-07-03T10:08:51.656Z,0.90
2018-07-03T10:11:26.716Z,0.90
2018-07-03T10:14:01.856Z,0.83
2018-07-03T10:16:36.989Z,0.90
2018-07-03T10:19:11.976Z,0.80
2018-07-03T10:21:47.060Z,0.90
2018-07-03T10:24:22.220Z,1.10
2018-07-03T10:26:57.434Z,1.00
2018-07-03T10:29:32.418Z,0.70
2018-07-03T10:32:07.392Z,1.13
2018-07-03T10:34:42.391Z,1.10
2018-07-03T10:37:17.399Z,0.90
2018-07-03T10:39:52.389Z,1.10
2018-07-03T10:42:27.411Z,0.80
2018-07-03T10:45:02.433Z,0.93
2018-07-03T10:47:37.587Z,1.10
2018-07-03T10:50:12.552Z,0.83
2018-07-03T10:52:47.264Z,1.10
2018-07-03T10:55:22.111Z,0.90
2018-07-03T10:57:57.256Z,0.80
2018-07-03T11:00:32.344Z,0.60
2018-07-03T11:03:07.248Z,0.90
2018-07-03T11:05:42.287Z,0.70
2018-07-03T11:08:17.244Z,1.00
2018-07-03T11:10:52.189Z,0.90
2018-07-03T11:13:27.238Z,0.73
2018-07-03T11:16:02.351Z,0.83
2018-07-03T11:18:37.361Z,1.10
2018-07-03T11:21:12.437Z,1.00
2018-07-03T11:23:47.621Z,0.90
2018-07-03T11:26:22.671Z,0.90
2018-07-03T11:28:57.704Z,0.83
2018-07-03T11:31:32.808Z,1.03
2018-07-03T11:34:08.079Z,0.67
2018-07-03T11:36:43.101Z,1.00
2018-07-03T11:39:18.151Z,0.90
2018-07-03T11:41:53.403Z,0.90
2018-07-03T11:44:28.423Z,0.80
2018-07-03T11:47:03.428Z,1.00
2018-07-03T11:49:38.548Z,0.80
2018-07-03T11:52:13.644Z,1.00
2018-07-03T11:54:48.800Z,1.10
2018-07-03T11:57:24.102Z,0.90
2018-07-03T11:59:59.510Z,0.70
2018-07-03T12:02:34.567Z,0.90
2018-07-03T12:05:09.648Z,0.90
2018-07-03T12:07:44.827Z,0.90
2018-07-03T12:10:19.846Z,0.80
2018-07-03T12:12:54.973Z,1.00
2018-07-03T12:15:30.049Z,0.90
2018-07-03T12:18:07.379Z,1.00
2018-07-03T12:20:42.488Z,1.00
2018-07-03T12:23:17.553Z,0.90
2018-07-03T12:25:52.484Z,1.20
2018-07-03T12:28:27.571Z,0.83
2018-07-03T12:31:02.696Z,0.93
2018-07-03T12:33:37.707Z,1.23
2018-07-03T12:36:12.868Z,0.90
2018-07-03T12:38:47.773Z,1.10
2018-07-03T12:41:22.631Z,1.10
2018-07-03T12:43:57.958Z,1.10
2018-07-03T12:46:32.917Z,1.10
2018-07-03T12:49:07.888Z,1.07
2018-07-03T12:51:42.871Z,1.00
2018-07-03T12:54:17.854Z,1.00
2018-07-03T12:56:52.737Z,1.10
2018-07-03T12:59:27.636Z,0.80
2018-07-03T13:02:03.636Z,1.10
2018-07-03T13:04:38.739Z,1.10
2018-07-03T13:07:13.720Z,1.07
2018-07-03T13:09:48.819Z,1.03
2018-07-03T13:12:23.908Z,1.10
2018-07-03T13:14:58.979Z,1.00
2018-07-03T13:17:33.979Z,0.93
2018-07-03T13:20:15.244Z,0.90
2018-07-03T13:22:50.190Z,0.90
2018-07-03T13:25:25.250Z,0.80
2018-07-03T13:28:00.361Z,1.10
2018-07-03T13:30:35.676Z,1.10
2018-07-03T13:33:10.700Z,1.20
2018-07-03T13:35:45.624Z,0.97
2018-07-03T13:38:20.599Z,1.00
2018-07-03T13:40:55.716Z,1.03
2018-07-03T13:43:30.769Z,1.07
2018-07-03T13:46:05.844Z,0.90
2018-07-03T13:48:40.904Z,1.10
2018-07-03T13:51:15.886Z,0.97
2018-07-03T13:53:50.688Z,1.10
2018-07-03T13:56:25.750Z,1.20
2018-07-03T13:59:01.810Z,0.97
2018-07-03T14:01:36.783Z,0.90
2018-07-03T14:04:11.820Z,0.90
2018-07-03T14:06:46.980Z,1.17
2018-07-03T14:09:22.112Z,1.00
2018-07-03T14:11:57.211Z,0.90
2018-07-03T14:14:32.172Z,1.10
2018-07-03T14:17:07.276Z,0.80
2018-07-03T14:19:42.223Z,1.17
2018-07-03T14:22:17.252Z,0.90
2018-07-03T14:24:52.384Z,1.17
2018-07-03T14:27:27.526Z,1.30
2018-07-03T14:30:03.344Z,1.10
2018-07-03T14:32:38.384Z,0.80
2018-07-03T14:35:13.356Z,0.70
2018-07-03T14:37:48.480Z,1.00
2018-07-03T14:40:23.412Z,1.00
2018-07-03T14:42:58.432Z,1.10
2018-07-03T14:45:33.544Z,0.97
2018-07-03T14:48:09.147Z,0.93
2018-07-03T14:50:44.256Z,0.90
2018-07-03T14:53:19.428Z,1.00
2018-07-03T14:55:54.476Z,1.10
2018-07-03T14:58:29.615Z,0.90
2018-07-03T15:01:04.719Z,1.00
2018-07-03T15:03:39.772Z,1.27
2018-07-03T15:06:14.927Z,1.13
2018-07-03T15:08:50.346Z,1.10
2018-07-03T15:11:25.532Z,0.97
2018-07-03T15:14:00.635Z,0.90
2018-07-03T15:16:35.597Z,1.13
2018-07-03T15:19:16.180Z,1.10
2018-07-03T15:21:51.110Z,0.90
2018-07-03T15:24:26.128Z,0.87
2018-07-03T15:27:01.265Z,1.00
2018-07-03T15:29:36.188Z,0.80
2018-07-03T15:32:11.252Z,0.97
2018-07-03T15:34:46.220Z,1.10
2018-07-03T15:37:21.332Z,0.80
2018-07-03T15:39:56.310Z,1.07
2018-07-03T15:42:31.384Z,0.90
2018-07-03T15:45:09.857Z,0.77
2018-07-03T15:47:44.920Z,0.87
2018-07-03T15:50:19.928Z,1.10
2018-07-03T15:52:55.008Z,0.93
2018-07-03T15:55:29.932Z,0.80
2018-07-03T15:58:04.928Z,1.00
2018-07-03T16:00:40.064Z,0.90
2018-07-03T16:05:32.419Z,0.73
2018-07-03T16:08:18.880Z,0.87
2018-07-03T16:10:53.999Z,1.10
2018-07-03T16:13:29.028Z,0.80
2018-07-03T16:16:04.210Z,1.00
2018-07-03T16:18:39.380Z,1.00
2018-07-03T16:21:14.491Z,1.10
2018-07-03T16:23:49.656Z,0.60
2018-07-03T16:26:24.760Z,0.87
2018-07-03T16:28:59.865Z,1.00
2018-07-03T16:31:34.948Z,1.00
2018-07-03T16:34:10.015Z,1.10
2018-07-03T16:36:45.197Z,1.10
2018-07-03T16:39:20.211Z,0.90
2018-07-03T16:41:55.296Z,1.13
2018-07-03T16:44:30.384Z,0.93
2018-07-03T16:47:05.640Z,0.93
2018-07-03T16:49:40.712Z,1.00
2018-07-03T16:52:15.675Z,0.77
2018-07-03T16:54:50.776Z,1.00
2018-07-03T16:57:25.843Z,1.00
2018-07-03T17:00:00.936Z,0.97
2018-07-03T17:02:36.054Z,1.03
2018-07-03T17:05:11.071Z,0.90
2018-07-03T17:07:47.184Z,0.97
2018-07-03T17:10:22.115Z,0.97
2018-07-03T17:12:57.131Z,0.77
2018-07-03T17:15:32.208Z,0.90
2018-07-03T17:18:07.298Z,1.10
2018-07-03T17:20:42.458Z,1.00
2018-07-03T17:23:17.463Z,1.10
2018-07-03T17:25:52.162Z,1.23
2018-07-03T17:28:27.436Z,0.93
2018-07-03T17:31:02.665Z,0.97
2018-07-03T17:33:37.580Z,0.90
2018-07-03T17:36:12.880Z,1.10
2018-07-03T17:38:47.980Z,1.20
2018-07-03T17:41:34.434Z,0.93
2018-07-03T17:45:33.475Z,1.00
2018-07-03T17:48:09.481Z,0.90
2018-07-03T17:50:44.528Z,0.90
2018-07-03T17:53:20.128Z,1.00
2018-07-03T17:55:55.511Z,1.17
2018-07-03T17:58:30.285Z,1.00
2018-07-03T18:01:05.180Z,1.00
2018-07-03T18:03:40.227Z,1.10
2018-07-03T18:06:15.231Z,1.17
2018-07-03T18:08:51.149Z,1.00
2018-07-03T18:11:26.164Z,0.90
2018-07-03T18:14:01.302Z,1.10
2018-07-03T18:16:36.405Z,1.07
2018-07-03T18:19:16.844Z,1.10
2018-07-03T18:21:52.044Z,1.00
2018-07-03T18:24:27.011Z,1.27
2018-07-03T18:27:02.420Z,0.93
2018-07-03T18:29:37.548Z,1.20
2018-07-03T18:32:12.208Z,0.93
2018-07-03T18:34:47.125Z,1.33
2018-07-03T18:37:22.072Z,0.90
2018-07-03T18:39:57.063Z,1.13
2018-07-03T18:42:32.143Z,1.13
2018-07-03T18:45:07.305Z,1.30
2018-07-03T18:47:42.243Z,1.27
2018-07-03T18:50:17.199Z,1.00
2018-07-03T18:52:52.380Z,1.50
2018-07-03T18:55:27.318Z,1.33
2018-07-03T18:58:02.432Z,1.30
2018-07-03T19:00:37.552Z,1.20
2018-07-03T19:03:12.655Z,1.13
2018-07-03T19:05:47.685Z,1.17
2018-07-03T19:08:22.649Z,1.10
2018-07-03T19:10:57.719Z,1.00
2018-07-03T19:13:32.844Z,1.13
2018-07-03T19:16:08.167Z,1.00
2018-07-03T19:18:43.132Z,0.87
2018-07-03T19:21:18.263Z,1.10
2018-07-03T19:23:53.492Z,1.10
2018-07-03T19:26:28.538Z,1.13
2018-07-03T19:29:03.563Z,1.40
2018-07-03T19:31:38.512Z,0.90
2018-07-03T19:34:13.543Z,1.43
2018-07-03T19:36:48.544Z,1.23
2018-07-03T19:39:23.652Z,1.23
2018-07-03T19:41:59.098Z,1.50
2018-07-03T19:44:34.079Z,1.30
2018-07-03T19:47:09.104Z,1.40
2018-07-03T19:49:44.230Z,1.30
2018-07-03T19:52:19.385Z,1.43
2018-07-03T19:54:54.331Z,1.40
2018-07-03T19:57:29.504Z,1.43
2018-07-03T20:03:02.060Z,1.57
2018-07-03T20:05:37.576Z,1.23
2018-07-03T20:08:12.696Z,1.10
2018-07-03T20:10:47.668Z,1.30
2018-07-03T20:13:22.687Z,1.20
2018-07-03T20:15:57.777Z,1.30
2018-07-03T20:18:32.859Z,1.10
2018-07-03T20:21:08.006Z,1.00
2018-07-03T20:23:42.972Z,1.10
2018-07-03T20:26:17.988Z,1.43
2018-07-03T20:28:53.115Z,1.00
2018-07-03T20:31:28.243Z,1.17
2018-07-03T20:34:03.177Z,1.20
2018-07-03T20:36:37.992Z,1.47
2018-07-03T20:39:13.168Z,1.10
2018-07-03T20:41:48.316Z,1.00
2018-07-03T20:44:23.437Z,1.40
2018-07-03T20:46:58.380Z,0.90
2018-07-03T20:49:33.445Z,1.10
2018-07-03T20:52:08.459Z,1.30
2018-07-03T20:54:43.436Z,1.30
2018-07-03T20:57:18.524Z,1.30
2018-07-03T20:59:53.613Z,1.43
2018-07-03T21:02:28.689Z,2.40
2018-07-03T21:05:03.820Z,3.00
2018-07-03T21:07:38.920Z,1.33
2018-07-03T21:10:14.013Z,1.30
2018-07-03T21:12:49.201Z,2.43
2018-07-03T21:15:24.375Z,1.60
2018-07-03T21:17:59.350Z,1.37
2018-07-03T21:20:34.495Z,1.47
2018-07-03T21:23:09.476Z,2.33
2018-07-03T21:25:44.429Z,1.47
2018-07-03T21:28:19.616Z,1.50
2018-07-03T21:30:55.728Z,1.23
2018-07-03T21:33:30.792Z,1.57
2018-07-03T21:36:05.776Z,1.37
2018-07-03T21:38:40.906Z,1.33
2018-07-03T21:41:15.971Z,1.43
2018-07-03T21:43:50.931Z,1.20
2018-07-03T21:46:26.079Z,1.33
2018-07-03T21:49:01.072Z,1.40
2018-07-03T21:51:36.139Z,1.40
2018-07-03T21:54:11.176Z,1.50
2018-07-03T21:56:46.096Z,1.50
2018-07-03T21:59:21.088Z,1.40
2018-07-03T22:01:56.262Z,1.60
2018-07-03T22:04:31.299Z,1.20
2018-07-03T22:07:06.418Z,1.30
2018-07-03T22:09:41.474Z,1.43
2018-07-03T22:12:16.420Z,1.60
2018-07-03T22:14:51.496Z,1.33
2018-07-03T22:17:26.508Z,1.23
2018-07-03T22:20:01.506Z,1.87
2018-07-03T22:22:36.612Z,1.63
2018-07-03T22:25:11.621Z,1.37
2018-07-03T22:27:46.715Z,1.47
2018-07-03T22:30:21.644Z,1.27
2018-07-03T22:32:56.792Z,1.47
2018-07-03T22:35:31.896Z,1.30
2018-07-03T22:38:07.162Z,1.37
2018-07-03T22:40:42.103Z,1.23
2018-07-03T22:43:17.207Z,1.30
2018-07-03T22:45:52.315Z,1.43
2018-07-03T22:48:27.329Z,1.30
2018-07-03T22:51:02.271Z,1.50
2018-07-03T22:53:37.515Z,1.40
2018-07-03T22:56:12.545Z,1.30
2018-07-03T22:58:47.682Z,1.10
2018-07-03T23:01:22.836Z,1.33
2018-07-03T23:03:57.899Z,1.40
2018-07-03T23:06:33.042Z,1.30
2018-07-03T23:09:08.243Z,1.30
2018-07-03T23:11:43.316Z,1.30
2018-07-03T23:14:18.399Z,1.43
2018-07-03T23:16:53.468Z,1.47
2018-07-03T23:19:28.496Z,1.30
2018-07-03T23:22:03.559Z,1.47
2018-07-03T23:24:38.499Z,1.47
2018-07-03T23:27:14.500Z,1.10
2018-07-03T23:29:49.453Z,1.20
2018-07-03T23:32:24.512Z,1.23
2018-07-03T23:34:59.601Z,1.30
2018-07-03T23:37:34.688Z,1.40
2018-07-03T23:40:09.641Z,1.40
2018-07-03T23:42:44.772Z,1.20
2018-07-03T23:45:19.905Z,1.20
2018-07-03T23:48:06.421Z,1.43
2018-07-03T23:50:59.199Z,1.30
2018-07-03T23:53:51.909Z,2.00
2018-07-03T23:56:44.424Z,1.40
2018-07-03T23:59:37.048Z,1.50
